Time;durP1;ratioP1;P1;durP2;ratioP2;P2;SDS_P1;SDS_P2;PMS_P1;PMS_P2;Temp;Humidity;BMP_temperature;BMP_pressure;BME280_temperature;BME280_humidity;BME280_pressure;Samples;Min_cycle;Max_cycle;Signal;HPM_P1;HPM_P2
2022/03/17 04:00:45;;;;;;;3.17;3.07;;;10.40;75.20;;;;;;5931284;23;20230;-79
2022/03/17 04:03:12;;;;;;;2.90;2.80;;;10.40;75.50;;;;;;4918497;29;20449;-78
2022/03/17 04:05:38;;;;;;;2.77;2.67;;;10.50;75.50;;;;;;4918306;29;20456;-79
2022/03/17 04:08:05;;;;;;;2.93;2.83;;;10.50;75.30;;;;;;4917627;29;20511;-78
2022/03/17 04:10:32;;;;;;;2.70;2.60;;;10.50;75.30;;;;;;4916704;29;20936;-79
2022/03/17 04:12:59;;;;;;;2.37;2.27;;;10.60;75.00;;;;;;4917625;29;20441;-79
2022/03/17 04:15:29;;;;;;;2.83;2.73;;;10.60;74.90;;;;;;4918768;29;20528;-78
2022/03/17 04:17:57;;;;;;;2.30;2.20;;;10.60;74.90;;;;;;4918156;29;20463;-78
2022/03/17 04:20:24;;;;;;;2.80;2.70;;;10.60;75.00;;;;;;4917602;29;21007;-78
2022/03/17 04:22:50;;;;;;;2.33;2.23;;;10.70;75.00;;;;;;4917416;29;20873;-79
2022/03/17 04:25:17;;;;;;;2.57;2.47;;;10.70;74.90;;;;;;4917186;29;20952;-79
2022/03/17 04:27:44;;;;;;;2.93;2.77;;;10.70;74.90;;;;;;4917496;29;20508;-79
2022/03/17 04:30:11;;;;;;;2.90;2.80;;;10.80;74.80;;;;;;4918019;29;20460;-79
2022/03/17 04:32:38;;;;;;;2.60;2.50;;;10.80;74.80;;;;;;4917500;29;20888;-79
2022/03/17 04:35:07;;;;;;;2.60;2.50;;;10.80;74.70;;;;;;4917280;29;20508;-79
2022/03/17 04:37:34;;;;;;;3.20;3.10;;;10.90;74.40;;;;;;4917381;29;20527;-79
2022/03/17 04:40:01;;;;;;;3.07;2.87;;;10.90;74.40;;;;;;4917464;29;20461;-79
2022/03/17 04:42:28;;;;;;;3.03;2.93;;;10.90;74.40;;;;;;4917402;29;20862;-79
2022/03/17 04:44:55;;;;;;;2.70;2.60;;;10.90;74.40;;;;;;4917008;29;20448;-78
2022/03/17 04:47:22;;;;;;;2.57;2.47;;;10.90;74.30;;;;;;4917313;29;20548;-78
2022/03/17 04:49:49;;;;;;;2.90;2.70;;;10.90;74.20;;;;;;4917254;29;20456;-79
2022/03/17 04:55:01;;;;;;;2.60;2.50;;;10.90;74.50;;;;;;4917292;29;20967;-79
2022/03/17 04:57:27;;;;;;;2.50;2.40;;;10.90;74.60;;;;;;4917383;29;20453;-78
2022/03/17 04:59:54;;;;;;;2.80;2.70;;;10.90;74.70;;;;;;4917409;29;20448;-77
2022/03/17 05:02:21;;;;;;;2.50;2.40;;;10.90;74.70;;;;;;4918887;29;20571;-78
2022/03/17 05:04:47;;;;;;;2.70;2.60;;;11.00;74.80;;;;;;4925906;29;20448;-78
2022/03/17 05:07:14;;;;;;;2.97;2.87;;;11.00;74.70;;;;;;4923875;29;20452;-77
2022/03/17 05:09:42;;;;;;;2.93;2.83;;;10.90;74.70;;;;;;4922464;29;20449;-79
2022/03/17 05:12:11;;;;;;;2.50;2.40;;;10.90;74.80;;;;;;4923473;29;20501;-79
2022/03/17 05:14:37;;;;;;;3.00;2.80;;;10.90;74.90;;;;;;4919049;29;20492;-79
2022/03/17 05:17:04;;;;;;;2.57;2.47;;;10.90;74.80;;;;;;4924511;29;20452;-74
2022/03/17 05:19:31;;;;;;;2.50;2.40;;;10.90;74.90;;;;;;4924144;29;20460;-78
2022/03/17 05:21:58;;;;;;;2.67;2.57;;;10.90;75.10;;;;;;4924518;29;20678;-78
2022/03/17 05:24:25;;;;;;;2.87;2.67;;;10.90;75.00;;;;;;4928591;29;20456;-78
2022/03/17 05:26:54;;;;;;;3.07;2.97;;;10.90;75.00;;;;;;4929370;29;20456;-79
2022/03/17 05:29:21;;;;;;;3.00;2.90;;;10.90;74.80;;;;;;4930022;29;20492;-77
2022/03/17 05:31:48;;;;;;;3.07;2.90;;;10.90;74.40;;;;;;4930344;29;20480;-78
2022/03/17 05:34:15;;;;;;;3.20;3.10;;;10.90;74.30;;;;;;4929200;29;20449;-78
2022/03/17 05:36:41;;;;;;;3.17;3.07;;;10.90;73.90;;;;;;4928927;29;20451;-78
2022/03/17 05:39:08;;;;;;;3.33;3.13;;;11.00;73.80;;;;;;4929752;29;20873;-78
2022/03/17 05:41:35;;;;;;;3.00;2.90;;;11.00;73.30;;;;;;4928630;29;20479;-78
2022/03/17 05:44:03;;;;;;;3.03;2.93;;;10.90;73.30;;;;;;4928471;29;20452;-78
2022/03/17 05:46:30;;;;;;;3.10;3.00;;;10.90;72.90;;;;;;4928705;29;20460;-78
2022/03/17 05:48:57;;;;;;;2.80;2.70;;;10.80;72.70;;;;;;4928787;29;20810;-78
2022/03/17 05:51:24;;;;;;;3.20;3.10;;;10.70;73.50;;;;;;4928880;29;20474;-78
2022/03/17 05:53:51;;;;;;;3.20;3.10;;;10.70;73.70;;;;;;4928703;29;20444;-78
2022/03/17 05:56:18;;;;;;;3.30;3.20;;;10.70;74.20;;;;;;4928453;29;20488;-78
2022/03/17 05:58:44;;;;;;;2.90;2.80;;;10.80;74.40;;;;;;4928906;29;20456;-78
2022/03/17 06:01:13;;;;;;;2.67;2.57;;;10.80;74.40;;;;;;4928123;29;20866;-78
2022/03/17 06:03:39;;;;;;;2.87;2.77;;;10.80;74.40;;;;;;4928499;29;20455;-78
2022/03/17 06:06:06;;;;;;;2.80;2.70;;;10.80;74.70;;;;;;4928231;29;20453;-78
2022/03/17 06:08:33;;;;;;;2.50;2.40;;;10.80;74.70;;;;;;4928596;29;20602;-78
2022/03/17 06:10:59;;;;;;;3.00;2.90;;;10.60;75.40;;;;;;4928048;29;20469;-78
2022/03/17 06:13:26;;;;;;;3.00;2.90;;;10.60;75.00;;;;;;4928173;29;20460;-78
2022/03/17 06:15:53;;;;;;;3.00;2.90;;;10.70;75.00;;;;;;4928534;29;20484;-78
2022/03/17 06:18:21;;;;;;;2.97;2.87;;;10.70;74.90;;;;;;4928451;29;20463;-78
2022/03/17 06:20:48;;;;;;;2.83;2.63;;;10.60;74.70;;;;;;4928307;29;20477;-78
2022/03/17 06:23:15;;;;;;;2.83;2.57;;;10.70;75.00;;;;;;4927902;29;20923;-77
2022/03/17 06:25:41;;;;;;;2.90;2.80;;;10.70;75.30;;;;;;4927048;29;20528;-77
2022/03/17 06:28:09;;;;;;;3.10;3.00;;;10.70;75.80;;;;;;4919339;29;20867;-78
2022/03/17 06:30:36;;;;;;;3.20;3.10;;;10.70;75.60;;;;;;4919148;29;20457;-77
2022/03/17 06:33:04;;;;;;;3.60;3.40;;;10.70;75.00;;;;;;4919044;29;20513;-77
2022/03/17 06:35:32;;;;;;;3.00;2.90;;;10.70;74.90;;;;;;4918338;29;20500;-77
2022/03/17 06:38:01;;;;;;;3.37;3.27;;;10.60;74.90;;;;;;4919108;29;20512;-77
2022/03/17 06:40:29;;;;;;;3.50;3.20;;;10.20;75.30;;;;;;4918633;29;20871;-77
2022/03/17 06:42:56;;;;;;;3.00;2.90;;;10.00;76.60;;;;;;4919011;29;20488;-77
2022/03/17 06:45:23;;;;;;;3.20;3.10;;;10.20;76.40;;;;;;4918991;29;20477;-78
2022/03/17 06:47:50;;;;;;;3.40;3.30;;;10.30;76.00;;;;;;4919236;29;20460;-77
2022/03/17 06:50:18;;;;;;;2.97;2.87;;;10.40;75.60;;;;;;4919685;29;20452;-80
2022/03/17 06:52:47;;;;;;;3.50;3.40;;;10.20;75.90;;;;;;4921251;29;20473;-77
2022/03/17 06:55:14;;;;;;;3.30;3.20;;;10.10;75.90;;;;;;4919178;29;20484;-78
2022/03/17 06:57:41;;;;;;;3.03;2.93;;;10.00;76.90;;;;;;4919023;29;20453;-77
2022/03/17 07:00:10;;;;;;;3.53;3.43;;;10.20;76.60;;;;;;4919160;29;20508;-78
2022/03/17 07:02:37;;;;;;;3.00;2.90;;;10.30;76.50;;;;;;4919242;29;20492;-82
2022/03/17 07:05:04;;;;;;;3.53;3.43;;;10.40;75.80;;;;;;4922253;29;20452;-80
2022/03/17 07:07:30;;;;;;;3.80;3.60;;;10.40;75.30;;;;;;4919150;29;20517;-78
2022/03/17 07:09:59;;;;;;;3.60;3.47;;;10.30;75.60;;;;;;4919118;29;20456;-78
2022/03/17 07:12:25;;;;;;;3.63;3.53;;;10.30;75.70;;;;;;4918971;29;20523;-78
2022/03/17 07:14:53;;;;;;;3.70;3.60;;;10.30;75.60;;;;;;4918500;29;20504;-78
2022/03/17 07:17:20;;;;;;;3.33;3.23;;;10.40;75.80;;;;;;4918764;29;20463;-78
2022/03/17 07:22:23;;;;;;;3.60;3.50;;;10.40;75.10;;;;;;4918040;29;20784;-78
2022/03/17 07:24:50;;;;;;;3.80;3.63;;;10.40;75.40;;;;;;4918240;29;20485;-78
2022/03/17 07:27:18;;;;;;;3.40;3.30;;;10.20;75.90;;;;;;4918244;29;20445;-78
2022/03/17 07:29:45;;;;;;;4.00;3.80;;;10.40;75.90;;;;;;4918126;29;20873;-78
2022/03/17 07:32:12;;;;;;;3.73;3.53;;;10.30;75.90;;;;;;4917620;29;21044;-78
2022/03/17 07:34:38;;;;;;;3.27;3.17;;;10.30;76.60;;;;;;4918010;29;20500;-78
2022/03/17 07:37:05;;;;;;;3.80;3.70;;;10.60;76.30;;;;;;4917886;29;20516;-78
2022/03/17 07:39:32;;;;;;;3.57;3.47;;;10.40;76.20;;;;;;4919209;29;20512;-78
2022/03/17 07:41:58;;;;;;;3.53;3.43;;;10.40;76.10;;;;;;4917962;29;20528;-78
2022/03/17 07:44:28;;;;;;;3.50;3.30;;;10.10;77.20;;;;;;4918053;29;20453;-78
2022/03/17 07:46:55;;;;;;;3.20;3.10;;;10.30;77.60;;;;;;4917621;29;20492;-78
2022/03/17 07:49:22;;;;;;;3.27;3.17;;;10.30;77.10;;;;;;4918079;29;20538;-78
2022/03/17 07:51:48;;;;;;;3.33;3.20;;;10.10;78.00;;;;;;4917799;29;20478;-78
2022/03/17 07:54:15;;;;;;;3.60;3.50;;;10.10;78.40;;;;;;4917513;29;20961;-78
2022/03/17 07:56:42;;;;;;;4.13;3.90;;;9.90;77.90;;;;;;4917751;29;20903;-78
2022/03/17 07:59:09;;;;;;;4.10;3.90;;;9.90;78.70;;;;;;4917836;29;20453;-78
2022/03/17 08:01:37;;;;;;;3.57;3.47;;;10.10;78.00;;;;;;4917587;29;20485;-78
2022/03/17 08:04:04;;;;;;;3.97;3.87;;;9.90;78.60;;;;;;4918308;29;20504;-79
2022/03/17 08:06:30;;;;;;;3.90;3.70;;;10.20;77.90;;;;;;4918223;29;20453;-78
2022/03/17 08:08:57;;;;;;;3.40;3.30;;;10.10;78.30;;;;;;4917491;29;20460;-78
2022/03/17 08:11:24;;;;;;;3.43;3.23;;;9.90;78.20;;;;;;4918001;29;20477;-78
2022/03/17 08:13:51;;;;;;;4.07;3.87;;;10.00;78.70;;;;;;4917590;29;20511;-78
2022/03/17 08:16:18;;;;;;;3.50;3.40;;;10.00;78.60;;;;;;4917709;29;20512;-78
2022/03/17 08:18:46;;;;;;;3.40;3.30;;;10.00;78.60;;;;;;4917743;29;20504;-78
2022/03/17 08:21:13;;;;;;;4.20;3.97;;;10.10;77.80;;;;;;4917347;29;20846;-78
2022/03/17 08:23:39;;;;;;;3.33;3.23;;;10.10;77.90;;;;;;4917516;29;20457;-78
2022/03/17 08:26:06;;;;;;;3.80;3.60;;;10.20;78.00;;;;;;4917364;29;20500;-78
2022/03/17 08:28:33;;;;;;;3.20;3.10;;;10.40;77.50;;;;;;4917211;29;20871;-78
2022/03/17 08:31:00;;;;;;;3.50;3.40;;;10.40;77.00;;;;;;4917206;29;20527;-78
2022/03/17 08:33:27;;;;;;;3.57;3.47;;;10.40;76.80;;;;;;4917023;29;21020;-78
2022/03/17 08:35:55;;;;;;;3.27;3.07;;;10.30;77.40;;;;;;4917524;29;20480;-78
2022/03/17 08:38:21;;;;;;;3.57;3.47;;;10.50;76.80;;;;;;4917715;29;20504;-78
2022/03/17 08:40:48;;;;;;;3.87;3.70;;;10.60;76.80;;;;;;4917773;29;20505;-78
2022/03/17 08:43:15;;;;;;;3.43;3.33;;;10.50;76.50;;;;;;4917379;29;20492;-78
2022/03/17 08:51:12;;;;;;;3.37;3.27;;;10.50;77.70;;;;;;4917204;29;20550;-78
2022/03/17 08:53:39;;;;;;;3.87;3.73;;;10.80;76.80;;;;;;4917421;29;20452;-78
2022/03/17 08:56:06;;;;;;;3.80;3.70;;;10.50;76.90;;;;;;4917340;29;20535;-78
2022/03/17 08:58:35;;;;;;;3.77;3.57;;;10.40;77.70;;;;;;4920504;29;20457;-78
2022/03/17 09:01:02;;;;;;;3.80;3.60;;;10.40;77.90;;;;;;4920762;29;20484;-78
2022/03/17 09:03:30;;;;;;;3.93;3.80;;;10.60;78.00;;;;;;4921744;29;20432;-78
2022/03/17 09:05:58;;;;;;;2.90;2.80;;;10.90;77.20;;;;;;4921057;29;20453;-78
2022/03/17 09:08:26;;;;;;;2.90;2.80;;;11.10;76.30;;;;;;4921242;29;20456;-78
2022/03/17 09:10:55;;;;;;;3.20;3.10;;;11.00;75.50;;;;;;4921181;29;20559;-78
2022/03/17 09:13:22;;;;;;;3.40;3.30;;;11.10;76.00;;;;;;4921845;29;20552;-78
2022/03/17 09:15:49;;;;;;;3.63;3.43;;;11.20;75.70;;;;;;4920952;29;20479;-78
2022/03/17 09:18:16;;;;;;;3.60;3.50;;;11.30;75.50;;;;;;4921171;29;20544;-78
2022/03/17 09:20:43;;;;;;;3.30;3.20;;;11.30;75.30;;;;;;4920643;29;20490;-78
2022/03/17 09:23:10;;;;;;;3.03;2.93;;;11.30;75.00;;;;;;4920546;29;20984;-78
2022/03/17 09:25:38;;;;;;;3.47;3.30;;;11.10;75.40;;;;;;4920298;29;20944;-78
2022/03/17 09:28:05;;;;;;;2.80;2.70;;;11.30;75.80;;;;;;4920482;29;20511;-78
2022/03/17 09:30:34;;;;;;;2.73;2.63;;;11.60;75.40;;;;;;4920387;29;20500;-78
2022/03/17 09:33:02;;;;;;;3.20;3.10;;;11.80;75.00;;;;;;4920571;29;20456;-78
2022/03/17 09:35:30;;;;;;;2.83;2.73;;;12.10;74.20;;;;;;4921031;29;20558;-78
2022/03/17 09:37:57;;;;;;;3.17;3.07;;;12.30;74.20;;;;;;4920347;29;20499;-78
2022/03/17 09:40:24;;;;;;;3.00;2.90;;;12.50;73.20;;;;;;4920033;29;20452;-78
2022/03/17 09:43:18;;;;;;;2.77;2.60;;;12.60;72.40;;;;;;4920213;29;20516;-78
2022/03/17 09:45:42;;;;;;;2.97;2.87;;;12.70;71.80;;;;;;4920041;29;20463;-78
2022/03/17 09:48:10;;;;;;;3.27;3.07;;;12.80;71.40;;;;;;4920431;29;20448;-78
2022/03/17 09:50:37;;;;;;;2.60;2.50;;;12.90;71.10;;;;;;4920245;29;20460;-78
2022/03/17 09:53:04;;;;;;;3.40;3.20;;;12.90;71.40;;;;;;4919849;29;20457;-78
2022/03/17 09:55:31;;;;;;;2.93;2.73;;;12.90;70.90;;;;;;4920234;29;20504;-78
2022/03/17 09:57:59;;;;;;;3.10;2.90;;;12.90;71.00;;;;;;4920255;29;20496;-78
2022/03/17 10:00:47;;;;;;;2.57;2.47;;;13.00;70.70;;;;;;4920205;29;20456;-79
2022/03/17 10:03:14;;;;;;;2.90;2.80;;;12.90;71.40;;;;;;4919435;29;20449;-78
2022/03/17 10:05:40;;;;;;;2.80;2.70;;;12.90;71.60;;;;;;4919879;29;20523;-78
2022/03/17 10:08:07;;;;;;;3.57;3.47;;;12.70;72.20;;;;;;4919370;29;20452;-78
2022/03/17 10:10:37;;;;;;;2.90;2.80;;;12.80;72.20;;;;;;4919336;29;20516;-79
2022/03/17 10:13:07;;;;;;;3.07;2.97;;;12.80;72.00;;;;;;4919862;29;20527;-78
2022/03/17 10:18:24;;;;;;;3.20;3.10;;;12.20;74.10;;;;;;4879887;29;20521;-72
2022/03/17 10:21:10;;;;;;;3.03;2.93;;;12.10;74.00;;;;;;4881044;29;20915;-73
2022/03/17 10:23:45;;;;;;;2.90;2.80;;;12.20;74.40;;;;;;4881371;29;20499;-72
2022/03/17 10:26:12;;;;;;;3.47;3.27;;;12.40;73.80;;;;;;4886774;29;20540;-73
2022/03/17 10:28:40;;;;;;;3.53;3.33;;;12.50;73.60;;;;;;4900010;29;20644;-73
2022/03/17 10:31:08;;;;;;;2.90;2.80;;;12.50;73.00;;;;;;4900010;29;20453;-73
2022/03/17 10:33:35;;;;;;;3.00;2.90;;;12.30;74.00;;;;;;4901015;29;20449;-73
2022/03/17 10:36:20;;;;;;;3.10;3.00;;;12.30;74.50;;;;;;4899382;29;20993;-73
2022/03/17 10:38:49;;;;;;;3.17;3.07;;;12.30;74.10;;;;;;4899827;29;20438;-73
2022/03/17 10:41:16;;;;;;;3.27;3.13;;;12.20;74.80;;;;;;4899455;29;20457;-72
2022/03/17 10:43:45;;;;;;;3.00;2.90;;;12.30;75.10;;;;;;4899707;29;20510;-72
2022/03/17 10:46:15;;;;;;;3.07;2.87;;;12.60;74.50;;;;;;4899579;29;20480;-72
2022/03/17 10:48:58;;;;;;;2.97;2.87;;;12.40;74.30;;;;;;4900263;29;20517;-72
2022/03/17 10:51:33;;;;;;;3.13;3.03;;;12.20;75.20;;;;;;4898084;29;20462;-72
2022/03/17 10:54:05;;;;;;;3.60;3.50;;;12.10;75.80;;;;;;4899512;29;20449;-71
2022/03/17 10:56:32;;;;;;;3.57;3.47;;;12.20;76.20;;;;;;4899338;29;20493;-71
2022/03/17 10:59:01;;;;;;;3.10;3.00;;;12.50;75.60;;;;;;4899444;29;20457;-73
2022/03/17 11:01:36;;;;;;;3.30;3.10;;;12.40;75.20;;;;;;4898980;29;20540;-72
2022/03/17 11:04:04;;;;;;;3.03;2.93;;;12.40;76.10;;;;;;4899085;29;20917;-72
2022/03/17 11:06:31;;;;;;;3.00;2.90;;;12.80;75.50;;;;;;4898977;29;20469;-72
2022/03/17 11:08:59;;;;;;;3.37;3.27;;;12.90;75.30;;;;;;4899183;29;20509;-72
2022/03/17 11:11:26;;;;;;;2.73;2.63;;;12.90;75.20;;;;;;4898724;29;20457;-72
2022/03/17 11:13:54;;;;;;;3.40;3.20;;;12.90;75.30;;;;;;4899091;29;20454;-72
2022/03/17 11:16:22;;;;;;;3.10;3.00;;;12.90;75.00;;;;;;4898648;29;20857;-72
2022/03/17 11:18:50;;;;;;;3.63;3.43;;;12.90;75.60;;;;;;4898931;29;20517;-72
2022/03/17 11:21:19;;;;;;;2.90;2.80;;;13.00;75.40;;;;;;4898347;29;20457;-72
2022/03/17 11:23:55;;;;;;;3.20;3.10;;;13.20;76.00;;;;;;4898620;29;20457;-73
2022/03/17 11:26:25;;;;;;;3.10;3.00;;;13.20;76.20;;;;;;4898849;29;20484;-73
2022/03/17 11:28:58;;;;;;;3.53;3.33;;;13.40;75.90;;;;;;4898859;29;20468;-73
2022/03/17 11:31:27;;;;;;;2.93;2.73;;;13.40;75.60;;;;;;4898891;29;20446;-73
2022/03/17 11:33:59;;;;;;;3.23;3.03;;;13.50;75.70;;;;;;4898682;29;20536;-73
2022/03/17 11:36:25;;;;;;;2.67;2.57;;;13.60;75.40;;;;;;4899301;29;20561;-73
2022/03/17 11:39:02;;;;;;;2.60;2.50;;;13.70;75.20;;;;;;4898648;29;20450;-74
2022/03/17 11:41:30;;;;;;;2.60;2.50;;;13.80;74.90;;;;;;4898691;29;20448;-74
2022/03/17 11:44:03;;;;;;;2.83;2.73;;;13.70;74.90;;;;;;4898557;29;20458;-74
2022/03/17 11:46:40;;;;;;;3.20;3.10;;;13.60;75.30;;;;;;4898295;29;20488;-74
2022/03/17 11:49:22;;;;;;;3.20;3.00;;;13.60;75.20;;;;;;4898395;29;20444;-73
2022/03/17 11:51:54;;;;;;;3.30;3.20;;;13.60;75.50;;;;;;4898504;29;20454;-73
2022/03/17 11:54:20;;;;;;;2.93;2.73;;;13.40;76.00;;;;;;4898482;29;20529;-74
2022/03/17 11:56:48;;;;;;;2.70;2.60;;;13.40;75.90;;;;;;4898257;29;20494;-75
2022/03/17 11:59:16;;;;;;;3.37;3.17;;;13.30;76.20;;;;;;4898096;29;20540;-74
2022/03/17 12:01:47;;;;;;;3.37;3.17;;;13.30;76.50;;;;;;4898353;29;20450;-75
2022/03/17 12:04:22;;;;;;;2.77;2.67;;;13.30;77.10;;;;;;4898456;29;21017;-74
2022/03/17 12:06:54;;;;;;;3.10;3.00;;;13.20;77.50;;;;;;4898519;29;20481;-74
2022/03/17 12:09:32;;;;;;;2.90;2.80;;;13.30;77.40;;;;;;4898402;29;20887;-75
2022/03/17 12:11:59;;;;;;;3.27;3.13;;;13.30;77.60;;;;;;4898568;29;20453;-73
2022/03/17 12:14:27;;;;;;;2.87;2.77;;;13.10;78.30;;;;;;4898311;29;20868;-74
2022/03/17 12:16:57;;;;;;;3.50;3.20;;;13.10;78.90;;;;;;4898155;29;20497;-75
2022/03/17 12:19:32;;;;;;;3.60;3.50;;;13.10;78.70;;;;;;4898350;29;20513;-74
2022/03/17 12:22:14;;;;;;;3.47;3.27;;;13.10;78.90;;;;;;4898272;29;20540;-74
2022/03/17 12:24:47;;;;;;;4.03;3.73;;;13.10;79.00;;;;;;4898368;29;20515;-74
2022/03/17 12:27:19;;;;;;;4.20;3.97;;;13.20;79.10;;;;;;4898174;29;20850;-74
2022/03/17 12:29:48;;;;;;;3.77;3.57;;;13.20;79.20;;;;;;4898329;29;20552;-73
2022/03/17 12:32:17;;;;;;;4.13;3.83;;;13.20;79.10;;;;;;4897678;29;20464;-73
2022/03/17 12:34:46;;;;;;;4.30;4.10;;;13.30;79.00;;;;;;4898612;29;20458;-74
2022/03/17 12:37:13;;;;;;;4.50;4.30;;;13.30;78.60;;;;;;4898470;29;20489;-74
2022/03/17 12:39:40;;;;;;;3.97;3.77;;;13.30;78.50;;;;;;4898212;29;20454;-73
2022/03/17 12:42:17;;;;;;;4.10;3.90;;;13.30;78.40;;;;;;4898645;29;20583;-73
2022/03/17 12:44:52;;;;;;;4.00;3.80;;;13.30;78.30;;;;;;4899040;29;20489;-74
2022/03/17 12:47:22;;;;;;;4.50;4.30;;;13.30;78.10;;;;;;4897863;29;20475;-73
2022/03/17 12:49:49;;;;;;;4.03;3.83;;;13.10;78.50;;;;;;4897593;29;20604;-74
2022/03/17 12:52:21;;;;;;;3.87;3.70;;;13.30;78.60;;;;;;4904356;29;20505;-72
2022/03/17 12:54:51;;;;;;;4.23;4.03;;;13.30;78.60;;;;;;4911445;29;20438;-73
2022/03/17 12:57:18;;;;;;;4.13;3.93;;;13.20;78.50;;;;;;4898216;29;20552;-73
2022/03/17 12:59:45;;;;;;;4.40;4.20;;;13.40;78.00;;;;;;4897639;29;20450;-73
2022/03/17 13:02:16;;;;;;;3.77;3.67;;;13.40;78.10;;;;;;4898248;29;20533;-74
2022/03/17 13:04:45;;;;;;;3.93;3.73;;;13.30;78.20;;;;;;4897660;29;20536;-73
2022/03/17 13:07:14;;;;;;;4.37;4.17;;;13.40;78.40;;;;;;4897642;29;20525;-74
2022/03/17 13:09:41;;;;;;;3.77;3.63;;;13.50;78.40;;;;;;4897730;29;20462;-74
2022/03/17 13:14:54;;;;;;;4.13;3.93;;;13.50;78.00;;;;;;4897672;29;20418;-74
2022/03/17 13:17:39;;;;;;;4.87;4.67;;;13.30;78.70;;;;;;4897204;29;20568;-74
2022/03/17 13:20:23;;;;;;;4.60;4.40;;;13.30;79.00;;;;;;4897585;29;20790;-74
2022/03/17 13:22:58;;;;;;;4.30;4.10;;;13.20;78.70;;;;;;4898209;29;20462;-74
2022/03/17 13:25:25;;;;;;;4.50;4.30;;;13.10;79.00;;;;;;4898039;29;20437;-74
2022/03/17 13:27:57;;;;;;;4.03;3.83;;;13.20;79.00;;;;;;4898575;29;20525;-74
2022/03/17 13:30:23;;;;;;;4.47;4.27;;;13.20;78.50;;;;;;4897743;29;20441;-74
2022/03/17 13:32:58;;;;;;;4.30;4.10;;;13.00;79.10;;;;;;4897430;29;20456;-74
2022/03/17 13:35:27;;;;;;;4.07;3.87;;;13.00;78.40;;;;;;4897244;29;20493;-74
2022/03/17 13:38:05;;;;;;;4.10;3.93;;;12.90;78.80;;;;;;4896944;29;20869;-74
2022/03/17 13:40:42;;;;;;;3.70;3.60;;;12.80;78.90;;;;;;4897974;29;20517;-74
2022/03/17 13:43:10;;;;;;;3.93;3.73;;;12.90;79.10;;;;;;4898577;29;20433;-74
2022/03/17 13:45:39;;;;;;;4.30;4.10;;;12.90;79.00;;;;;;4900772;29;20513;-74
2022/03/17 13:48:07;;;;;;;4.27;4.07;;;12.80;78.70;;;;;;4900604;29;20457;-74
2022/03/17 13:50:39;;;;;;;3.80;3.60;;;12.60;79.20;;;;;;4900438;29;20625;-74
2022/03/17 13:53:07;;;;;;;4.27;4.07;;;12.50;79.00;;;;;;4900409;29;20906;-74
2022/03/17 13:55:37;;;;;;;4.33;4.13;;;12.60;79.10;;;;;;4900626;29;20454;-74
2022/03/17 13:58:15;;;;;;;4.60;4.40;;;12.40;79.00;;;;;;4900520;29;20865;-74
2022/03/17 14:00:42;;;;;;;4.13;3.93;;;12.50;78.90;;;;;;4900563;29;20490;-74
2022/03/17 14:03:32;;;;;;;3.73;3.53;;;12.50;78.70;;;;;;4900382;29;20509;-74
2022/03/17 14:06:11;;;;;;;4.23;4.03;;;12.50;78.70;;;;;;4900388;29;20909;-74
2022/03/17 14:08:48;;;;;;;4.43;4.23;;;12.60;78.70;;;;;;4900607;29;20439;-74
2022/03/17 14:11:17;;;;;;;3.70;3.60;;;12.70;78.20;;;;;;4900398;29;20455;-74
2022/03/17 14:13:45;;;;;;;4.20;4.00;;;12.60;78.70;;;;;;4900234;29;20454;-74
2022/03/17 14:16:12;;;;;;;3.53;3.43;;;12.70;77.60;;;;;;4899872;29;20538;-73
2022/03/17 14:18:40;;;;;;;3.97;3.77;;;12.60;76.40;;;;;;4900213;29;20473;-73
2022/03/17 14:21:09;;;;;;;3.43;3.33;;;12.70;76.80;;;;;;4900064;29;20557;-73
2022/03/17 14:26:22;;;;;;;3.17;2.97;;;12.70;76.10;;;;;;4899980;29;20591;-73
2022/03/17 14:28:48;;;;;;;3.60;3.50;;;12.70;75.80;;;;;;4899948;29;20449;-73
2022/03/17 14:31:17;;;;;;;4.10;3.90;;;12.90;75.70;;;;;;4899923;29;20457;-73
2022/03/17 14:33:44;;;;;;;3.43;3.30;;;12.90;75.40;;;;;;4899891;29;20461;-74
2022/03/17 14:36:12;;;;;;;3.80;3.60;;;13.00;74.50;;;;;;4899600;29;21076;-73
2022/03/17 14:38:41;;;;;;;3.30;3.10;;;13.00;73.90;;;;;;4899695;29;20485;-74
2022/03/17 14:41:11;;;;;;;3.80;3.60;;;12.80;73.60;;;;;;4899633;29;20457;-72
2022/03/17 14:43:39;;;;;;;2.97;2.87;;;12.70;72.80;;;;;;4899469;29;20818;-74
2022/03/17 14:46:05;;;;;;;3.00;2.90;;;12.60;73.00;;;;;;4899357;29;20529;-73
2022/03/17 14:48:32;;;;;;;3.60;3.40;;;12.60;72.80;;;;;;4899671;29;20518;-73
2022/03/17 14:51:01;;;;;;;3.50;3.40;;;12.60;72.30;;;;;;4899464;29;20454;-74
2022/03/17 14:53:30;;;;;;;3.30;3.20;;;12.60;72.60;;;;;;4899203;29;20548;-74
2022/03/17 14:55:57;;;;;;;3.50;3.30;;;12.50;72.50;;;;;;4898759;29;20477;-74
2022/03/17 14:58:25;;;;;;;3.70;3.50;;;12.50;72.70;;;;;;4900572;29;20485;-74
2022/03/17 15:00:52;;;;;;;3.60;3.40;;;12.50;72.70;;;;;;4900568;29;20535;-74
2022/03/17 15:03:19;;;;;;;3.07;2.97;;;12.50;72.50;;;;;;4900178;29;20469;-73
2022/03/17 15:05:46;;;;;;;3.57;3.37;;;12.50;72.80;;;;;;4900338;29;20461;-74
2022/03/17 15:08:13;;;;;;;3.50;3.40;;;12.50;72.80;;;;;;4899399;29;20450;-73
2022/03/17 15:10:41;;;;;;;3.87;3.70;;;12.60;72.50;;;;;;4899019;29;20989;-74
2022/03/17 15:13:07;;;;;;;3.20;3.10;;;12.50;72.80;;;;;;4899148;29;20453;-74
2022/03/17 15:15:34;;;;;;;3.97;3.77;;;12.50;73.30;;;;;;4899095;29;20501;-74
2022/03/17 15:18:02;;;;;;;4.30;4.10;;;12.50;73.50;;;;;;4898915;29;20498;-73
2022/03/17 15:20:28;;;;;;;4.40;4.20;;;12.60;73.40;;;;;;4898766;29;20938;-73
2022/03/17 15:22:55;;;;;;;4.80;4.60;;;12.80;73.20;;;;;;4899154;29;20450;-74
2022/03/17 15:25:22;;;;;;;3.80;3.60;;;12.90;72.80;;;;;;4898890;29;20453;-74
2022/03/17 15:30:37;;;;;;;3.40;3.30;;;12.90;72.40;;;;;;4899087;29;20433;-73
2022/03/17 15:33:05;;;;;;;3.60;3.50;;;12.90;72.50;;;;;;4899429;29;20454;-73
2022/03/17 15:35:33;;;;;;;3.53;3.40;;;12.90;72.30;;;;;;4898597;29;20876;-74
2022/03/17 15:38:00;;;;;;;3.10;3.00;;;12.90;72.50;;;;;;4898329;29;20942;-72
2022/03/17 15:40:31;;;;;;;3.93;3.73;;;12.80;72.60;;;;;;4898771;29;20524;-74
2022/03/17 15:43:02;;;;;;;3.77;3.57;;;12.80;72.80;;;;;;4899252;29;20868;-75
2022/03/17 15:45:29;;;;;;;3.77;3.57;;;12.80;73.30;;;;;;4899351;29;20446;-74
2022/03/17 15:47:56;;;;;;;3.43;3.23;;;12.70;73.60;;;;;;4899067;29;20453;-75
2022/03/17 15:50:26;;;;;;;3.20;3.10;;;12.60;74.00;;;;;;4899068;29;20458;-74
2022/03/17 15:52:53;;;;;;;3.17;3.07;;;12.70;74.40;;;;;;4899359;29;20509;-75
2022/03/17 15:55:21;;;;;;;3.53;3.33;;;12.80;74.10;;;;;;4898842;29;20866;-75
2022/03/17 15:57:48;;;;;;;3.70;3.50;;;12.80;73.90;;;;;;4898977;29;20481;-75
2022/03/17 16:00:17;;;;;;;3.63;3.53;;;12.80;74.10;;;;;;4899148;29;20512;-75
2022/03/17 16:02:44;;;;;;;3.37;3.27;;;12.70;74.00;;;;;;4898765;29;21002;-74
2022/03/17 16:05:12;;;;;;;3.33;3.23;;;12.60;73.80;;;;;;4898781;29;20950;-74
2022/03/17 16:07:40;;;;;;;3.20;3.10;;;12.60;73.70;;;;;;4899142;29;20482;-73
2022/03/17 16:15:37;;;;;;;3.50;3.30;;;12.70;73.20;;;;;;4898738;29;20417;-75
2022/03/17 16:18:04;;;;;;;3.67;3.57;;;12.60;73.20;;;;;;4899784;29;20497;-74
2022/03/17 16:20:30;;;;;;;3.80;3.60;;;12.50;73.50;;;;;;4898686;29;20458;-74
2022/03/17 16:22:59;;;;;;;3.53;3.33;;;12.50;73.40;;;;;;4898443;29;20450;-75
2022/03/17 16:25:26;;;;;;;3.80;3.60;;;12.50;73.40;;;;;;4899023;29;20461;-75
2022/03/17 16:27:53;;;;;;;3.10;3.00;;;12.50;73.40;;;;;;4898291;29;20470;-74
2022/03/17 16:30:21;;;;;;;3.73;3.53;;;12.30;74.10;;;;;;4898062;29;20805;-73
2022/03/17 16:32:49;;;;;;;3.67;3.47;;;12.20;74.60;;;;;;4898010;29;20457;-74
2022/03/17 16:35:16;;;;;;;3.60;3.50;;;12.30;74.40;;;;;;4898063;29;20449;-73
2022/03/17 16:37:43;;;;;;;3.90;3.70;;;12.40;74.30;;;;;;4897909;29;20474;-74
2022/03/17 16:40:12;;;;;;;3.53;3.43;;;12.30;74.40;;;;;;4898056;29;20450;-74
2022/03/17 16:42:39;;;;;;;3.43;3.27;;;12.40;74.20;;;;;;4897848;29;20533;-74
2022/03/17 16:45:06;;;;;;;3.90;3.67;;;12.40;74.10;;;;;;4897860;29;20448;-74
2022/03/17 16:47:33;;;;;;;3.87;3.77;;;12.40;74.10;;;;;;4897704;29;20469;-74
2022/03/17 16:50:01;;;;;;;3.27;3.17;;;12.40;74.50;;;;;;4897443;29;20946;-74
2022/03/17 16:52:28;;;;;;;3.70;3.60;;;12.10;75.30;;;;;;4897426;29;20449;-74
2022/03/17 16:54:55;;;;;;;3.70;3.60;;;12.10;75.50;;;;;;4897750;29;20504;-74
2022/03/17 16:57:21;;;;;;;4.47;4.27;;;12.30;75.20;;;;;;4898066;29;20477;-74
2022/03/17 16:59:48;;;;;;;4.07;3.77;;;12.30;75.10;;;;;;4897604;29;20958;-74
2022/03/17 17:02:16;;;;;;;3.40;3.30;;;12.40;75.00;;;;;;4897743;29;20465;-74
2022/03/17 17:04:43;;;;;;;3.60;3.40;;;12.30;75.10;;;;;;4897450;29;20887;-74
2022/03/17 17:07:11;;;;;;;3.00;2.87;;;12.30;75.40;;;;;;4897650;29;20476;-74
2022/03/17 17:09:37;;;;;;;3.57;3.40;;;12.30;75.20;;;;;;4897856;29;20462;-74
2022/03/17 17:12:09;;;;;;;3.53;3.33;;;12.20;75.30;;;;;;4897698;29;20462;-74
2022/03/17 17:14:36;;;;;;;3.40;3.20;;;12.20;75.40;;;;;;4897494;29;20442;-74
2022/03/17 17:17:04;;;;;;;3.87;3.67;;;12.20;75.60;;;;;;4897192;29;20489;-74
2022/03/17 17:19:30;;;;;;;3.90;3.70;;;12.20;75.70;;;;;;4900607;29;20485;-74
2022/03/17 17:21:57;;;;;;;3.43;3.23;;;12.00;76.30;;;;;;4901022;29;20505;-74